Time;durP1;ratioP1;P1;durP2;ratioP2;P2;SDS_P1;SDS_P2;PMS_P1;PMS_P2;Temp;Humidity;BMP_temperature;BMP_pressure;BME280_temperature;BME280_humidity;BME280_pressure;Samples;Min_cycle;Max_cycle;Signal;HPM_P1;HPM_P2
2024/05/04 00:00:31;;;;;;;14.35;8.23;;;9.60;99.90;;;;;;5375794;26;20036;-77
2024/05/04 00:03:16;;;;;;;14.82;9.73;;;9.60;99.90;;;;;;5396919;26;20019;-78
2024/05/04 00:06:04;;;;;;;10.55;8.50;;;9.50;99.90;;;;;;5361413;26;20027;-78
2024/05/04 00:08:49;;;;;;;12.52;8.60;;;9.50;99.90;;;;;;5375421;26;20019;-78
2024/05/04 00:11:34;;;;;;;11.73;9.43;;;9.40;99.90;;;;;;5375090;26;21547;-76
2024/05/04 00:14:19;;;;;;;14.60;9.57;;;9.40;99.90;;;;;;5374563;26;20335;-77
2024/05/04 00:17:04;;;;;;;13.52;8.80;;;9.40;99.90;;;;;;5378042;26;20022;-78
2024/05/04 00:19:49;;;;;;;11.23;8.82;;;9.50;99.90;;;;;;5374867;26;20082;-78
2024/05/04 00:22:37;;;;;;;10.07;8.27;;;9.50;99.90;;;;;;5371046;26;20095;-78
2024/05/04 00:25:22;;;;;;;12.75;8.45;;;9.50;99.90;;;;;;5376351;26;20022;-77
2024/05/04 00:28:07;;;;;;;12.68;9.02;;;9.50;99.90;;;;;;5373877;26;20015;-77
2024/05/04 00:30:52;;;;;;;10.27;8.65;;;9.40;99.90;;;;;;5369342;26;20332;-77
2024/05/04 00:33:37;;;;;;;13.18;8.98;;;9.50;99.90;;;;;;5372606;26;20018;-77
2024/05/04 00:36:22;;;;;;;14.10;8.45;;;9.50;99.90;;;;;;5372900;26;20026;-75
2024/05/04 00:39:10;;;;;;;12.23;9.10;;;9.40;99.90;;;;;;5367444;26;20030;-78
2024/05/04 00:41:55;;;;;;;13.93;8.90;;;9.40;99.90;;;;;;5376344;26;20024;-76
2024/05/04 00:44:40;;;;;;;12.23;8.35;;;9.30;99.90;;;;;;5370696;26;20022;-75
2024/05/04 00:47:25;;;;;;;12.63;9.13;;;9.30;99.90;;;;;;5375288;26;20082;-77
2024/05/04 00:50:12;;;;;;;12.93;8.57;;;9.30;99.90;;;;;;5401387;26;20019;-77
2024/05/04 00:52:58;;;;;;;10.00;8.32;;;9.30;99.90;;;;;;5376972;26;20669;-77
2024/05/04 00:55:46;;;;;;;14.10;8.73;;;9.20;99.90;;;;;;5380861;26;20026;-77
2024/05/04 00:58:31;;;;;;;12.25;9.13;;;9.20;99.90;;;;;;5374763;26;20372;-77
2024/05/04 01:01:16;;;;;;;11.93;8.50;;;9.20;99.90;;;;;;5373439;26;20015;-77
2024/05/04 01:04:01;;;;;;;9.65;8.55;;;9.10;99.90;;;;;;5368778;26;20553;-76
2024/05/04 01:06:46;;;;;;;15.82;9.20;;;9.10;99.90;;;;;;5369686;26;20015;-76
2024/05/04 01:09:31;;;;;;;11.02;8.75;;;9.00;99.90;;;;;;5370376;26;20082;-75
2024/05/04 01:12:19;;;;;;;13.63;8.98;;;9.10;99.90;;;;;;5371837;26;20022;-77
2024/05/04 01:15:04;;;;;;;13.00;9.75;;;9.10;99.90;;;;;;5370178;26;20023;-78
2024/05/04 01:17:49;;;;;;;12.15;9.48;;;9.00;99.90;;;;;;5366931;26;20113;-78
2024/05/04 01:20:37;;;;;;;10.93;9.15;;;9.00;99.90;;;;;;5374237;26;20022;-78
2024/05/04 01:23:25;;;;;;;14.32;9.93;;;9.00;99.90;;;;;;5373934;26;20498;-77
2024/05/04 01:26:10;;;;;;;11.60;9.77;;;9.00;99.90;;;;;;5371737;26;20085;-77
2024/05/04 01:28:55;;;;;;;11.82;10.02;;;8.90;99.90;;;;;;5370881;26;20023;-77
2024/05/04 01:31:39;;;;;;;12.10;10.40;;;8.80;99.90;;;;;;5367869;26;20015;-77
2024/05/04 01:34:25;;;;;;;13.32;10.32;;;8.80;99.90;;;;;;5371272;26;20018;-77
2024/05/04 01:37:10;;;;;;;11.73;10.20;;;8.80;99.90;;;;;;5373265;26;20027;-78
2024/05/04 01:39:57;;;;;;;12.32;9.43;;;8.80;99.90;;;;;;5371850;26;20663;-77
2024/05/04 01:42:45;;;;;;;11.57;10.07;;;8.80;99.90;;;;;;5374026;26;20023;-77
2024/05/04 01:45:30;;;;;;;13.48;9.65;;;8.80;99.90;;;;;;5373346;26;20522;-77
2024/05/04 01:48:15;;;;;;;15.55;10.48;;;8.80;99.90;;;;;;5367386;26;20065;-76
2024/05/04 01:51:05;;;;;;;13.75;10.57;;;8.80;99.90;;;;;;5371152;26;20018;-77
2024/05/04 01:53:50;;;;;;;14.25;10.82;;;8.80;99.90;;;;;;5368944;26;20044;-77
2024/05/04 01:56:38;;;;;;;14.48;11.02;;;8.70;99.90;;;;;;5363857;26;20073;-77
2024/05/04 01:59:23;;;;;;;12.98;11.07;;;8.70;99.90;;;;;;5366912;26;20045;-77
2024/05/04 02:02:08;;;;;;;18.13;11.93;;;8.70;99.90;;;;;;5370432;26;20086;-77
2024/05/04 02:04:53;;;;;;;14.73;11.05;;;8.70;99.90;;;;;;5369314;26;20022;-77
2024/05/04 02:07:38;;;;;;;14.77;10.90;;;8.70;99.90;;;;;;5369511;26;20880;-77
2024/05/04 02:10:23;;;;;;;14.65;10.65;;;8.60;99.90;;;;;;5365608;26;20423;-77
2024/05/04 02:13:11;;;;;;;13.63;9.93;;;8.60;99.90;;;;;;5369199;26;20624;-77
2024/05/04 02:15:56;;;;;;;12.43;10.15;;;8.60;99.90;;;;;;5366137;26;20094;-77
2024/05/04 02:18:41;;;;;;;11.18;9.98;;;8.60;99.90;;;;;;5370151;26;20041;-77
2024/05/04 02:21:26;;;;;;;14.05;9.65;;;8.50;99.90;;;;;;5362736;26;20037;-77
2024/05/04 02:24:11;;;;;;;11.10;9.93;;;8.50;99.90;;;;;;5367020;26;20023;-76
2024/05/04 02:26:56;;;;;;;12.82;9.23;;;8.50;99.90;;;;;;5372069;26;20627;-76
2024/05/04 02:29:44;;;;;;;11.98;10.18;;;8.50;99.90;;;;;;5375164;26;20406;-76
2024/05/04 02:32:28;;;;;;;14.05;10.35;;;8.40;99.90;;;;;;5371430;26;20018;-76
2024/05/04 02:35:13;;;;;;;12.93;10.25;;;8.30;99.90;;;;;;5380305;26;20018;-76
2024/05/04 02:37:58;;;;;;;13.80;10.45;;;8.30;99.90;;;;;;5381295;26;20113;-76
2024/05/04 02:40:43;;;;;;;15.13;10.70;;;8.30;99.90;;;;;;5379082;26;20027;-76
2024/05/04 02:43:29;;;;;;;11.48;9.98;;;8.30;99.90;;;;;;5378630;26;20026;-76
2024/05/04 02:46:16;;;;;;;12.80;9.75;;;8.30;99.90;;;;;;5376280;26;21412;-76
2024/05/04 02:49:01;;;;;;;11.38;9.75;;;8.30;99.90;;;;;;5378729;26;20023;-76
2024/05/04 02:51:46;;;;;;;13.85;10.95;;;8.20;99.90;;;;;;5377287;26;20077;-76
2024/05/04 02:54:31;;;;;;;13.80;10.95;;;8.10;99.90;;;;;;5379328;26;20024;-76
2024/05/04 02:57:16;;;;;;;12.82;10.45;;;8.10;99.90;;;;;;5381238;26;20018;-76
2024/05/04 03:00:02;;;;;;;13.68;10.43;;;8.10;99.90;;;;;;5376982;26;20022;-76
2024/05/04 03:02:49;;;;;;;11.02;9.50;;;8.10;99.90;;;;;;5378504;26;20077;-75
2024/05/04 03:05:34;;;;;;;13.93;10.32;;;8.10;99.90;;;;;;5379246;26;20026;-76
2024/05/04 03:08:20;;;;;;;11.73;10.27;;;8.10;99.90;;;;;;5373605;26;20086;-76
2024/05/04 03:11:07;;;;;;;13.68;9.60;;;8.10;99.90;;;;;;5376738;26;20086;-76
2024/05/04 03:13:52;;;;;;;10.80;9.70;;;8.10;99.90;;;;;;5375669;26;20015;-76
2024/05/04 03:16:42;;;;;;;11.93;10.00;;;8.10;99.90;;;;;;5376527;26;20018;-76
2024/05/04 03:19:29;;;;;;;13.40;10.60;;;8.10;99.90;;;;;;5371384;26;20085;-76
2024/05/04 03:22:14;;;;;;;12.32;10.20;;;8.10;99.90;;;;;;5374639;26;20010;-76
2024/05/04 03:24:59;;;;;;;11.35;9.98;;;8.10;99.90;;;;;;5370687;26;20068;-76
2024/05/04 03:27:44;;;;;;;11.35;10.15;;;8.10;99.90;;;;;;5372649;26;20077;-76
2024/05/04 03:30:29;;;;;;;11.25;10.10;;;8.00;99.90;;;;;;5371638;26;20052;-76
2024/05/04 03:33:14;;;;;;;13.38;9.60;;;8.00;99.90;;;;;;5373447;26;20040;-76
2024/05/04 03:36:01;;;;;;;12.60;9.98;;;7.90;99.90;;;;;;5371154;26;20522;-76
2024/05/04 03:38:46;;;;;;;12.60;10.15;;;7.90;99.90;;;;;;5373673;26;20085;-76
2024/05/04 03:41:31;;;;;;;14.10;10.43;;;8.00;99.90;;;;;;5372672;26;20349;-76
2024/05/04 03:44:16;;;;;;;13.90;10.95;;;8.00;99.90;;;;;;5371860;26;20074;-76
2024/05/04 03:47:01;;;;;;;14.70;10.85;;;7.90;99.90;;;;;;5375770;26;20016;-76
2024/05/04 03:49:46;;;;;;;12.45;10.38;;;7.80;99.90;;;;;;5377031;26;20077;-75
2024/05/04 03:52:34;;;;;;;13.85;10.85;;;7.80;99.90;;;;;;5369736;26;20409;-76
2024/05/04 03:55:19;;;;;;;14.48;11.13;;;7.70;99.90;;;;;;5371359;26;20080;-77
2024/05/04 03:58:04;;;;;;;14.02;11.98;;;7.70;99.90;;;;;;5373994;26;20089;-76
2024/05/04 04:00:49;;;;;;;13.20;11.52;;;7.70;99.90;;;;;;5373272;26;20007;-77
2024/05/04 04:03:34;;;;;;;12.82;11.45;;;7.70;99.90;;;;;;5371110;26;20059;-76
2024/05/04 04:06:19;;;;;;;15.82;12.55;;;7.60;99.90;;;;;;5372198;26;20015;-75
2024/05/04 04:09:07;;;;;;;;;;;7.60;99.90;;;;;;5367905;26;20081;-76
2024/05/04 04:11:52;;;;;;;13.57;11.98;;;7.60;99.90;;;;;;5371922;26;19958;-76
2024/05/04 04:14:37;;;;;;;17.17;13.82;;;7.60;99.90;;;;;;5372517;26;20385;-76
2024/05/04 04:17:22;;;;;;;17.95;13.15;;;7.60;99.90;;;;;;5372105;26;20472;-76
2024/05/04 04:20:08;;;;;;;17.20;13.02;;;7.60;99.90;;;;;;5381047;26;20448;-76
2024/05/04 04:22:53;;;;;;;16.17;13.48;;;7.60;99.90;;;;;;5383338;26;20018;-77
2024/05/04 04:25:41;;;;;;;16.55;13.38;;;7.70;99.90;;;;;;5376322;26;20041;-76
2024/05/04 04:28:26;;;;;;;16.00;13.02;;;7.80;99.90;;;;;;5382175;26;20487;-76
2024/05/04 04:31:11;;;;;;;16.02;13.55;;;7.80;99.90;;;;;;5374044;26;20018;-76
2024/05/04 04:33:57;;;;;;;15.45;13.07;;;7.90;99.90;;;;;;5386901;26;20031;-76
2024/05/04 04:36:42;;;;;;;17.85;13.85;;;7.90;99.90;;;;;;5386533;26;20018;-76
2024/05/04 04:39:27;;;;;;;17.88;13.68;;;8.00;99.90;;;;;;5379055;26;20078;-76
2024/05/04 04:42:15;;;;;;;17.25;14.23;;;8.20;99.90;;;;;;5373270;26;20546;-76
2024/05/04 04:44:59;;;;;;;17.83;14.50;;;8.20;99.90;;;;;;5375370;26;20016;-76
2024/05/04 04:47:44;;;;;;;17.83;14.45;;;8.40;99.90;;;;;;5384934;26;20023;-76
2024/05/04 04:50:29;;;;;;;17.90;14.85;;;8.40;99.90;;;;;;5380675;26;20012;-76
2024/05/04 04:53:15;;;;;;;16.10;14.40;;;8.50;99.90;;;;;;5382453;26;20019;-76
2024/05/04 04:55:59;;;;;;;16.92;14.88;;;8.50;99.90;;;;;;5372317;26;20019;-76
2024/05/04 04:58:47;;;;;;;17.80;14.70;;;8.70;99.90;;;;;;5381664;26;20027;-76
2024/05/04 05:01:32;;;;;;;17.23;15.07;;;8.90;99.90;;;;;;5385628;26;20086;-77
2024/05/04 05:04:17;;;;;;;15.80;14.10;;;9.00;99.90;;;;;;5368055;26;20014;-76
2024/05/04 05:07:02;;;;;;;17.10;14.55;;;9.10;99.90;;;;;;5356006;26;20010;-76
2024/05/04 05:09:48;;;;;;;17.63;14.73;;;9.20;99.90;;;;;;5369140;26;20080;-76
2024/05/04 05:12:33;;;;;;;18.25;14.63;;;9.20;99.90;;;;;;5365502;26;20015;-77
2024/05/04 05:15:20;;;;;;;18.55;14.57;;;9.30;99.90;;;;;;5356810;26;20122;-76
2024/05/04 05:18:05;;;;;;;18.15;14.40;;;9.40;99.90;;;;;;5366560;26;20036;-76
2024/05/04 05:20:50;;;;;;;18.63;14.43;;;9.50;99.90;;;;;;5368715;26;20048;-76
2024/05/04 05:23:35;;;;;;;16.83;14.05;;;9.50;99.90;;;;;;5370934;26;20019;-76
2024/05/04 05:26:20;;;;;;;18.27;14.52;;;9.70;99.90;;;;;;5358507;26;20015;-76
2024/05/04 05:29:05;;;;;;;18.85;13.85;;;9.80;99.90;;;;;;5367770;26;20015;-76
2024/05/04 05:31:52;;;;;;;18.83;14.02;;;9.90;99.90;;;;;;5358631;26;20014;-76
2024/05/04 05:34:38;;;;;;;17.33;14.43;;;10.00;99.90;;;;;;5349404;26;20598;-76
2024/05/04 05:37:23;;;;;;;17.77;13.48;;;10.00;99.90;;;;;;5373628;26;20019;-76
2024/05/04 05:40:08;;;;;;;16.88;13.90;;;10.00;99.90;;;;;;5361898;26;20073;-76
2024/05/04 05:42:53;;;;;;;14.48;12.93;;;10.10;99.90;;;;;;5361588;26;20093;-77
2024/05/04 05:45:38;;;;;;;14.32;12.63;;;10.20;99.90;;;;;;5371098;26;20015;-76
2024/05/04 05:48:27;;;;;;;13.57;11.90;;;10.30;99.90;;;;;;5366810;26;20117;-76
2024/05/04 05:51:12;;;;;;;13.15;11.57;;;10.40;99.90;;;;;;5369958;26;20088;-77
2024/05/04 05:53:57;;;;;;;14.95;11.65;;;10.50;99.90;;;;;;5372311;26;20019;-76
2024/05/04 05:56:56;;;;;;;14.13;11.70;;;10.60;99.90;;;;;;5373339;26;20474;-76
2024/05/04 05:59:41;;;;;;;12.70;10.13;;;10.70;99.90;;;;;;5369774;26;20014;-76
2024/05/04 06:02:26;;;;;;;14.23;10.20;;;10.90;99.90;;;;;;5365143;26;20131;-77
2024/05/04 06:05:14;;;;;;;14.25;10.07;;;11.00;99.90;;;;;;5370187;26;20368;-77
2024/05/04 06:08:00;;;;;;;12.55;9.63;;;11.20;99.90;;;;;;5359120;26;20081;-76
2024/05/04 06:10:44;;;;;;;11.85;8.57;;;11.40;99.90;;;;;;5370928;26;20345;-76
2024/05/04 06:13:30;;;;;;;10.00;7.90;;;11.60;99.90;;;;;;5377958;26;20111;-76
2024/05/04 06:16:15;;;;;;;13.30;8.70;;;11.80;99.90;;;;;;5378037;26;20081;-76
2024/05/04 06:19:00;;;;;;;10.15;7.60;;;11.90;99.90;;;;;;5367950;26;20015;-76
2024/05/04 06:21:47;;;;;;;12.10;7.90;;;12.10;99.90;;;;;;5377545;26;20015;-76
2024/05/04 06:24:32;;;;;;;11.20;7.20;;;12.30;99.90;;;;;;5357610;26;20082;-76
2024/05/04 06:27:17;;;;;;;10.50;6.93;;;12.40;99.90;;;;;;5372853;26;20073;-76
2024/05/04 06:30:03;;;;;;;12.07;7.22;;;12.60;99.90;;;;;;5381819;26;20487;-76
2024/05/04 06:32:47;;;;;;;11.10;6.90;;;12.70;99.90;;;;;;5377312;26;20023;-76
2024/05/04 06:35:33;;;;;;;8.52;6.22;;;12.80;99.90;;;;;;5376130;26;20014;-76
2024/05/04 06:38:20;;;;;;;;;;;12.90;99.90;;;;;;5375279;26;20344;-76
2024/05/04 06:41:05;;;;;;;9.63;5.63;;;13.00;99.90;;;;;;5362529;26;19995;-76
2024/05/04 06:43:50;;;;;;;8.13;6.10;;;13.10;99.90;;;;;;5365372;26;20507;-76
2024/05/04 06:46:35;;;;;;;9.80;5.45;;;13.30;99.90;;;;;;5361668;26;20074;-76
2024/05/04 06:49:20;;;;;;;6.50;5.28;;;13.40;99.90;;;;;;5367503;26;20073;-76
2024/05/04 06:52:05;;;;;;;8.20;5.75;;;13.50;99.90;;;;;;5365742;26;20018;-76
2024/05/04 06:54:53;;;;;;;8.02;5.15;;;13.60;99.90;;;;;;5356706;26;20019;-76
2024/05/04 06:57:38;;;;;;;9.90;5.03;;;13.70;99.90;;;;;;5365248;26;20015;-76
2024/05/04 07:00:23;;;;;;;5.95;4.50;;;13.80;99.90;;;;;;5367491;26;20074;-76
2024/05/04 07:03:08;;;;;;;6.25;5.20;;;13.80;99.90;;;;;;5357553;26;20011;-76
2024/05/04 07:05:54;;;;;;;7.65;5.05;;;13.90;99.90;;;;;;5365663;26;20407;-76
2024/05/04 07:08:39;;;;;;;7.57;4.63;;;14.00;99.90;;;;;;5363977;26;20075;-77
2024/05/04 07:11:26;;;;;;;8.20;4.85;;;14.10;99.90;;;;;;5372119;26;20018;-77
2024/05/04 07:14:12;;;;;;;10.10;4.75;;;14.20;99.90;;;;;;5364127;26;20018;-76
2024/05/04 07:16:58;;;;;;;7.28;4.13;;;14.30;99.90;;;;;;5367463;26;20022;-76
2024/05/04 07:19:43;;;;;;;7.05;4.53;;;14.50;99.90;;;;;;5364292;26;20521;-76
2024/05/04 07:22:29;;;;;;;7.57;4.35;;;14.60;99.90;;;;;;5364365;26;20352;-77
2024/05/04 07:25:15;;;;;;;5.82;4.10;;;14.70;99.90;;;;;;5364440;26;20101;-77
2024/05/04 07:28:02;;;;;;;;;;;14.90;99.90;;;;;;5364708;26;20018;-77
2024/05/04 07:30:48;;;;;;;6.68;3.90;;;15.00;99.90;;;;;;5366262;26;20315;-76
2024/05/04 07:33:33;;;;;;;6.43;4.38;;;15.10;99.90;;;;;;5367079;26;20015;-77
2024/05/04 07:36:18;;;;;;;6.05;3.63;;;15.20;99.90;;;;;;5371051;26;20015;-76
2024/05/04 07:39:03;;;;;;;6.32;4.13;;;15.30;99.90;;;;;;5369025;26;20015;-75
2024/05/04 07:41:47;;;;;;;7.03;3.95;;;15.40;99.90;;;;;;5365774;26;20097;-76
2024/05/04 07:44:35;;;;;;;6.50;3.83;;;15.60;99.90;;;;;;5369286;26;20073;-76
2024/05/04 07:47:20;;;;;;;9.27;3.90;;;15.60;99.90;;;;;;5365645;26;20484;-75
2024/05/04 07:50:06;;;;;;;6.70;4.10;;;15.70;99.90;;;;;;5358840;26;20077;-75
2024/05/04 07:52:56;;;;;;;6.68;4.20;;;15.70;99.90;;;;;;5361688;26;20078;-75
2024/05/04 07:55:41;;;;;;;6.53;4.10;;;15.80;99.90;;;;;;5370512;26;20082;-76
2024/05/04 07:58:26;;;;;;;7.70;3.63;;;16.00;99.90;;;;;;5363618;26;20366;-76
2024/05/04 08:01:14;;;;;;;5.65;3.65;;;16.20;99.90;;;;;;5362071;26;20087;-76
2024/05/04 08:03:59;;;;;;;5.75;3.85;;;16.30;99.90;;;;;;5366917;26;20470;-76
2024/05/04 08:06:46;;;;;;;7.57;3.60;;;16.40;99.90;;;;;;5365376;26;20364;-76
2024/05/04 08:09:31;;;;;;;7.10;3.63;;;16.60;99.90;;;;;;5364918;26;20094;-76
2024/05/04 08:12:16;;;;;;;6.20;3.00;;;16.80;99.90;;;;;;5360788;26;20030;-76
2024/05/04 08:15:01;;;;;;;5.05;2.30;;;16.90;99.90;;;;;;5369626;26;20031;-76
2024/05/04 08:17:48;;;;;;;5.72;2.78;;;16.90;99.90;;;;;;5368457;26;20008;-75
2024/05/04 08:20:33;;;;;;;6.07;2.85;;;17.00;99.90;;;;;;5367037;26;20015;-76
2024/05/04 08:23:18;;;;;;;6.68;3.10;;;17.10;99.90;;;;;;5364359;26;20024;-75
2024/05/04 08:26:03;;;;;;;5.93;3.00;;;17.30;99.90;;;;;;5363128;26;20077;-75
2024/05/04 08:28:49;;;;;;;6.05;2.60;;;17.40;99.90;;;;;;5364602;26;20048;-75
2024/05/04 08:31:33;;;;;;;4.25;2.35;;;17.60;99.90;;;;;;5364688;26;20023;-76
2024/05/04 08:34:21;;;;;;;5.28;2.83;;;17.60;99.90;;;;;;5368230;26;20051;-76
2024/05/04 08:37:06;;;;;;;3.38;2.20;;;17.70;99.90;;;;;;5373946;26;20015;-76
2024/05/04 08:39:51;;;;;;;5.88;2.47;;;17.80;99.90;;;;;;5366833;26;20468;-76
2024/05/04 08:42:36;;;;;;;5.30;2.47;;;17.90;99.90;;;;;;5364153;26;20024;-77
2024/05/04 08:45:22;;;;;;;6.95;2.30;;;17.90;99.90;;;;;;5372683;26;20019;-76
2024/05/04 08:48:08;;;;;;;4.90;2.45;;;17.90;99.90;;;;;;5373324;26;20019;-77
2024/05/04 08:50:57;;;;;;;5.75;2.50;;;17.70;99.90;;;;;;5368766;26;20182;-77
2024/05/04 08:53:43;;;;;;;4.80;2.45;;;17.90;99.90;;;;;;5358755;26;20023;-77
2024/05/04 08:56:33;;;;;;;5.68;2.67;;;17.90;99.90;;;;;;5367113;26;20019;-79
2024/05/04 08:59:20;;;;;;;5.82;2.67;;;18.10;99.90;;;;;;5363378;26;20444;-76
2024/05/04 09:02:06;;;;;;;6.55;2.25;;;18.20;99.90;;;;;;5371445;26;20022;-77
2024/05/04 09:04:51;;;;;;;4.47;1.95;;;18.40;99.90;;;;;;5372809;26;20081;-76
2024/05/04 09:07:38;;;;;;;3.75;1.92;;;18.60;99.70;;;;;;5362503;26;20052;-76
2024/05/04 09:10:23;;;;;;;4.82;1.88;;;18.70;99.30;;;;;;5362994;26;20016;-76
2024/05/04 09:13:08;;;;;;;3.42;1.45;;;18.60;98.30;;;;;;5370380;26;20473;-77
2024/05/04 09:15:57;;;;;;;4.53;1.80;;;18.60;98.60;;;;;;5369989;26;20020;-77
2024/05/04 09:18:42;;;;;;;4.45;2.00;;;18.80;99.00;;;;;;5364610;26;22075;-76
2024/05/04 09:21:27;;;;;;;;;;;18.90;98.20;;;;;;5370347;26;20015;-77
2024/05/04 09:24:15;;;;;;;3.08;1.45;;;18.90;97.80;;;;;;5366217;26;20292;-77
2024/05/04 09:27:00;;;;;;;4.18;1.92;;;19.00;97.80;;;;;;5360215;26;20038;-76
2024/05/04 09:29:45;;;;;;;4.32;1.80;;;19.10;97.60;;;;;;5367763;26;20486;-76
2024/05/04 09:32:30;;;;;;;7.60;1.63;;;19.10;96.40;;;;;;5364599;26;20118;-76
2024/05/04 09:35:16;;;;;;;4.28;1.63;;;19.00;96.00;;;;;;5385072;26;20025;-77
2024/05/04 09:38:14;;;;;;;4.38;1.70;;;18.70;96.70;;;;;;5389052;26;20027;-76
2024/05/04 09:41:03;;;;;;;5.88;1.83;;;18.90;96.70;;;;;;5391794;26;20076;-78
2024/05/04 09:43:48;;;;;;;3.75;1.90;;;19.10;96.50;;;;;;5377938;26;20059;-77
2024/05/04 09:46:34;;;;;;;6.20;1.60;;;19.30;95.30;;;;;;5396646;26;20080;-77
2024/05/04 09:49:21;;;;;;;6.88;2.05;;;19.50;95.00;;;;;;5389703;26;20015;-78
2024/05/04 09:52:09;;;;;;;4.47;1.90;;;19.80;95.20;;;;;;5379253;26;20051;-80
2024/05/04 09:54:57;;;;;;;3.55;1.77;;;20.00;93.70;;;;;;5383345;26;20480;-79
2024/05/04 09:57:46;;;;;;;4.32;1.70;;;19.80;94.40;;;;;;5379912;26;20024;-75
2024/05/04 10:00:32;;;;;;;6.55;2.55;;;19.90;94.40;;;;;;5378527;26;20031;-76
2024/05/04 10:03:20;;;;;;;5.03;1.65;;;20.00;93.80;;;;;;5391592;26;20047;-81
2024/05/04 10:06:06;;;;;;;3.97;1.60;;;19.80;94.10;;;;;;5362817;26;20025;-76
2024/05/04 10:08:51;;;;;;;4.20;1.77;;;19.80;93.50;;;;;;5385474;26;20022;-76
2024/05/04 10:11:39;;;;;;;3.40;1.75;;;19.60;94.30;;;;;;5383345;26;20019;-77
2024/05/04 10:14:29;;;;;;;4.50;1.73;;;19.50;94.20;;;;;;5376530;26;20078;-77
2024/05/04 10:17:26;;;;;;;3.58;1.10;;;19.50;94.00;;;;;;5370218;26;20081;-77
2024/05/04 10:20:11;;;;;;;4.32;1.40;;;19.50;93.20;;;;;;5376498;26;20045;-74
2024/05/04 10:23:00;;;;;;;5.25;1.75;;;19.50;93.40;;;;;;5411951;26;20426;-75
2024/05/04 10:25:49;;;;;;;2.83;1.42;;;19.60;94.10;;;;;;5384311;26;20085;-76
2024/05/04 10:28:34;;;;;;;3.58;1.52;;;19.80;93.60;;;;;;5378931;26;20019;-77
2024/05/04 10:31:21;;;;;;;5.22;1.42;;;20.00;93.50;;;;;;5386741;26;20558;-77
2024/05/04 10:34:07;;;;;;;3.13;1.20;;;20.00;93.70;;;;;;5384416;26;20528;-77
2024/05/04 10:36:51;;;;;;;;;;;20.30;93.30;;;;;;5380657;26;20033;-77
2024/05/04 10:39:37;;;;;;;5.60;1.48;;;20.50;92.40;;;;;;5386379;26;20008;-76
2024/05/04 10:42:22;;;;;;;3.38;1.40;;;20.50;92.80;;;;;;5396964;26;20081;-75
2024/05/04 10:45:08;;;;;;;4.57;1.10;;;20.50;92.40;;;;;;5383581;26;20023;-76
2024/05/04 10:47:56;;;;;;;5.43;1.20;;;20.60;92.10;;;;;;5374139;26;20026;-77
2024/05/04 10:50:41;;;;;;;2.00;1.02;;;20.70;92.00;;;;;;5381776;26;20146;-76
2024/05/04 10:53:26;;;;;;;2.90;1.23;;;20.80;92.20;;;;;;5388112;26;20360;-78
2024/05/04 10:56:10;;;;;;;;;;;20.80;92.30;;;;;;5379492;26;20051;-77
2024/05/04 10:58:55;;;;;;;2.97;1.10;;;20.80;91.80;;;;;;5374726;26;19940;-80
2024/05/04 11:01:42;;;;;;;1.83;0.80;;;20.80;91.40;;;;;;5364216;26;20030;-81
2024/05/04 11:04:33;;;;;;;1.83;0.90;;;20.60;90.70;;;;;;5369620;26;20011;-81
2024/05/04 11:07:25;;;;;;;3.78;1.20;;;20.70;91.20;;;;;;5384072;26;20023;-82
2024/05/04 11:10:11;;;;;;;3.90;1.52;;;20.70;91.50;;;;;;5367908;26;20385;-78
2024/05/04 11:12:56;;;;;;;4.18;1.50;;;20.50;91.00;;;;;;5369577;26;20089;-79
2024/05/04 11:15:43;;;;;;;2.50;1.30;;;20.40;91.70;;;;;;5363371;26;20023;-82
2024/05/04 11:18:28;;;;;;;3.03;1.40;;;20.30;91.60;;;;;;5370558;26;20027;-81
2024/05/04 11:21:16;;;;;;;4.22;1.50;;;20.30;91.80;;;;;;5360903;26;20019;-78
2024/05/04 11:24:01;;;;;;;3.85;1.40;;;20.30;92.10;;;;;;5359781;26;20019;-78
2024/05/04 11:26:46;;;;;;;4.85;1.85;;;20.20;92.40;;;;;;5371371;26;20162;-79
2024/05/04 11:29:31;;;;;;;4.85;1.88;;;20.10;92.40;;;;;;5369561;26;20022;-76
2024/05/04 11:32:16;;;;;;;3.90;1.67;;;20.00;92.10;;;;;;5369212;26;20086;-76
2024/05/04 11:35:01;;;;;;;2.33;1.50;;;20.20;92.10;;;;;;5385478;26;20018;-76
2024/05/04 11:37:48;;;;;;;;;;;20.30;91.60;;;;;;5371380;26;20015;-73
2024/05/04 11:40:33;;;;;;;5.40;1.50;;;20.30;91.90;;;;;;5378548;26;19936;-76
2024/05/04 11:43:18;;;;;;;4.85;1.65;;;20.20;91.60;;;;;;5384027;26;20383;-76
2024/05/04 11:46:05;;;;;;;3.33;1.50;;;19.90;91.00;;;;;;5368407;26;20013;-76
2024/05/04 11:48:52;;;;;;;4.35;1.90;;;19.80;91.60;;;;;;5380023;26;20019;-76
2024/05/04 11:51:38;;;;;;;5.15;1.80;;;19.70;91.60;;;;;;5379066;26;20714;-75
2024/05/04 11:54:27;;;;;;;3.58;1.73;;;19.50;92.60;;;;;;5359194;26;20028;-75
2024/05/04 11:57:12;;;;;;;4.18;2.00;;;19.40;92.60;;;;;;5369851;26;20019;-75
2024/05/04 11:59:56;;;;;;;2.55;1.25;;;19.30;92.60;;;;;;5373709;26;20089;-76
2024/05/04 12:02:41;;;;;;;3.78;1.48;;;19.20;93.00;;;;;;5392577;26;20057;-76
2024/05/04 12:05:27;;;;;;;3.58;1.65;;;19.00;93.60;;;;;;5381389;26;20018;-77
2024/05/04 12:08:12;;;;;;;5.18;2.20;;;19.10;94.30;;;;;;5378660;26;20016;-77
2024/05/04 12:10:59;;;;;;;4.18;2.30;;;19.10;94.20;;;;;;5376812;26;20015;-77
2024/05/04 12:13:45;;;;;;;4.85;1.95;;;19.10;94.40;;;;;;5385325;26;20106;-78
2024/05/04 12:16:30;;;;;;;3.38;1.83;;;19.00;94.90;;;;;;5379843;26;20522;-77
2024/05/04 12:19:15;;;;;;;6.35;2.20;;;19.00;95.50;;;;;;5378157;26;20020;-76
2024/05/04 12:22:00;;;;;;;2.97;1.60;;;18.80;95.80;;;;;;5383433;26;20023;-77
2024/05/04 12:24:45;;;;;;;;;;;18.70;95.80;;;;;;5389048;26;20010;-76
2024/05/04 12:27:35;;;;;;;3.83;1.33;;;18.60;96.00;;;;;;5381421;26;19932;-75
2024/05/04 12:30:21;;;;;;;4.13;1.67;;;18.60;95.80;;;;;;5370920;26;20023;-76
2024/05/04 12:33:06;;;;;;;2.75;1.77;;;18.60;95.90;;;;;;5378662;26;20029;-81
2024/05/04 12:35:51;;;;;;;7.07;1.80;;;18.60;96.30;;;;;;5385123;26;20014;-82
2024/05/04 12:38:36;;;;;;;4.45;1.63;;;18.70;96.10;;;;;;5386851;26;20014;-78
2024/05/04 12:41:21;;;;;;;3.47;1.60;;;18.60;96.20;;;;;;5378249;26;20069;-80
2024/05/04 12:44:08;;;;;;;3.88;1.42;;;18.60;96.20;;;;;;5366707;26;20082;-77
2024/05/04 12:46:53;;;;;;;3.92;1.65;;;18.60;95.90;;;;;;5380167;26;20023;-77
2024/05/04 12:49:38;;;;;;;4.15;1.50;;;18.50;95.90;;;;;;5383799;26;20018;-77
2024/05/04 12:52:24;;;;;;;2.60;1.33;;;18.40;96.20;;;;;;5380930;26;20160;-77
2024/05/04 12:55:09;;;;;;;5.50;1.63;;;18.30;96.60;;;;;;5378655;26;20076;-75
2024/05/04 12:57:54;;;;;;;3.17;1.83;;;18.10;97.50;;;;;;5388501;26;20023;-77
2024/05/04 13:00:41;;;;;;;3.53;1.40;;;17.80;99.40;;;;;;5385262;26;20033;-77
2024/05/04 13:03:26;;;;;;;2.15;0.63;;;17.40;99.90;;;;;;5379296;26;20353;-78
2024/05/04 13:06:12;;;;;;;5.82;0.82;;;16.70;98.40;;;;;;5395037;26;20081;-76
2024/05/04 13:08:58;;;;;;;6.13;2.05;;;16.10;99.90;;;;;;5390129;26;20056;-77
2024/05/04 13:11:43;;;;;;;7.20;1.27;;;15.30;99.90;;;;;;5388888;26;20048;-78
2024/05/04 13:14:28;;;;;;;;;;;14.70;99.90;;;;;;5382181;26;20019;-77
2024/05/04 13:17:16;;;;;;;3.97;1.50;;;14.30;99.90;;;;;;5384354;26;20484;-77
2024/05/04 13:20:01;;;;;;;3.10;1.30;;;14.00;99.90;;;;;;5393186;26;20025;-78
2024/05/04 13:22:46;;;;;;;2.15;1.10;;;13.90;99.90;;;;;;5389527;26;20056;-78
2024/05/04 13:25:31;;;;;;;2.53;1.10;;;13.80;99.90;;;;;;5381882;26;20083;-78
2024/05/04 13:28:15;;;;;;;2.90;0.90;;;13.80;99.90;;;;;;5383651;26;20077;-77
2024/05/04 13:31:02;;;;;;;4.25;1.05;;;13.90;99.90;;;;;;5387931;26;20323;-78
2024/05/04 13:33:49;;;;;;;3.13;1.00;;;13.90;99.90;;;;;;5379732;26;20049;-78
2024/05/04 13:36:34;;;;;;;1.48;1.00;;;14.10;99.90;;;;;;5381987;26;20014;-75
2024/05/04 13:39:20;;;;;;;2.47;1.27;;;14.10;99.90;;;;;;5377925;26;20018;-77
2024/05/04 13:42:05;;;;;;;;;;;14.30;99.90;;;;;;5380994;26;20406;-77
2024/05/04 13:44:49;;;;;;;3.70;1.20;;;14.30;99.90;;;;;;5380062;26;20221;-80
2024/05/04 13:47:35;;;;;;;2.50;0.95;;;14.30;99.90;;;;;;5379509;26;20018;-82
2024/05/04 13:50:23;;;;;;;;;;;14.30;99.90;;;;;;5375458;26;20030;-82
2024/05/04 13:53:08;;;;;;;2.58;1.10;;;14.30;99.90;;;;;;5380096;26;19997;-85
2024/05/04 13:55:53;;;;;;;3.80;1.17;;;14.40;99.90;;;;;;5387051;26;20477;-82
2024/05/04 13:58:38;;;;;;;2.92;0.95;;;14.60;99.90;;;;;;5385987;26;20078;-81
2024/05/04 14:01:22;;;;;;;2.63;0.90;;;15.00;99.90;;;;;;5381493;26;20018;-83
2024/05/04 14:04:07;;;;;;;1.85;0.88;;;15.50;99.90;;;;;;5392011;26;20019;-82
2024/05/04 14:06:55;;;;;;;;;;;16.00;99.90;;;;;;5383581;26;20545;-81
2024/05/04 14:09:42;;;;;;;1.10;0.40;;;16.20;99.90;;;;;;5383139;26;20278;-81
2024/05/04 14:12:26;;;;;;;1.65;0.57;;;16.40;99.90;;;;;;5384537;26;20498;-82
2024/05/04 14:15:11;;;;;;;2.33;1.00;;;16.50;99.90;;;;;;5379767;26;20021;-81
2024/05/04 14:17:56;;;;;;;2.92;1.08;;;16.80;99.90;;;;;;5388674;26;20014;-83
2024/05/04 14:20:42;;;;;;;2.13;0.70;;;17.70;99.90;;;;;;5377137;26;20026;-83